Latest Coastal Weather Observations for Point Fawcett

IDD60701

Issued at 5:35 am CST Wednesday 1 October 2014 (issued every 10 minutes, with the page automatically refreshed every 10 minutes)

About coastal observations | Map of coastal stations | Coastal observations for NT | Marine services | Other Formats
Station Details ID: 200731 Name: POINT FAWCETT Lat: -11.76 Lon: 130.03 Height: 6.5 m
Data from the previous 72 hours. | See also: Recent months at Point Fawcett
Date/Time
CST
Temp

°C
Wind Pressure Rain
since 9am
mm
Weather Cloud Vis
km
Sea
Height
m
Swell
Dir
 
Speed
knots
Gust
knots
hPa Trend Height
m
Period
s
Dir
01/05:30am 23.0 ESE 5 6 1012.3 - - - - - - - - -
01/05:00am 23.6 E 5 7 1012.0 - - - - - - - - -
01/04:30am 23.3 E 5 7 1011.9 - - - - - - - - -
01/04:00am 23.7 E 4 6 1011.8 - - - - - - - - -
01/03:30am 24.1 E 5 8 1011.8 - - - - - - - - -
01/03:00am 23.9 E 4 6 1011.7 - - - - - - - - -
01/02:30am 24.3 E 4 5 1011.8 - - - - - - - - -
01/02:00am 24.9 ENE 4 6 1011.9 - - - - - - - - -
01/01:30am 25.5 ENE 4 6 1012.4 - - - - - - - - -
01/01:00am 26.0 NE 6 10 1012.6 - - - - - - - - -
01/12:30am 26.1 NE 6 8 1012.8 - - - - - - - - -
01/12:00am 26.6 NE 6 9 1013.0 - - - - - - - - -
 
Date/Time
CST
Temp

°C
Wind Pressure Rain
since 9am
mm
Weather Cloud Vis
km
Sea
Height
m
Swell
Dir
 
Speed
knots
Gust
knots
hPa Trend Height
m
Period
s
Dir
30/11:30pm 26.7 NE 7 10 1013.1 - - - - - - - - -
30/11:00pm 26.4 NNE 6 9 1013.1 - - - - - - - - -
30/10:30pm 26.5 NE 6 8 1013.2 - - - - - - - - -
30/10:00pm 26.5 NE 6 9 1013.0 - - - - - - - - -
30/09:30pm 26.7 NNE 8 12 1012.6 - - - - - - - - -
30/09:00pm 27.2 NNE 8 13 1012.3 - - - - - - - - -
30/08:30pm 27.7 NNE 8 13 1012.1 - - - - - - - - -
30/08:00pm 27.9 N 9 11 1011.7 - - - - - - - - -
30/07:30pm 28.0 N 10 14 1011.2 - - - - - - - - -
30/07:00pm 27.8 NNW 10 14 1011.0 - - - - - - - - -
30/06:30pm 27.3 WNW 10 13 1010.6 - - - - - - - - -
30/06:00pm 28.4 NNW 10 13 1010.2 - - - - - - - - -
30/05:30pm 29.5 NNW 10 13 1010.0 - - - - - - - - -
30/05:00pm 29.8 NNW 7 10 1010.0 - - - - - - - - -
30/04:30pm 28.8 W 5 8 1010.1 - - - - - - - - -
30/04:00pm 29.8 W 5 6 1010.2 - - - - - - - - -
30/03:30pm 29.9 W 4 7 1010.4 - - - - - - - - -
30/03:00pm 28.8 W 4 6 1010.8 - - - - - - - - -
30/02:30pm 29.0 W 6 8 1011.1 - - - - - - - - -
30/02:00pm 29.4 W 5 7 1011.5 - - - - - - - - -
30/01:30pm 29.3 WNW 6 8 1011.9 - - - - - - - - -
30/01:00pm 30.6 NNW 6 8 1012.2 - - - - - - - - -
30/12:30pm 30.0 NW 10 13 1012.5 - - - - - - - - -
30/12:00pm 31.4 NNW 8 10 1012.8 - - - - - - - - -
30/11:30am 31.8 N 9 13 1013.5 - - - - - - - - -
30/11:00am 31.1 NNE 7 10 1013.8 - - - - - - - - -
30/10:30am 31.0 NNE 6 8 1014.1 - - - - - - - - -
30/10:00am 31.0 NE 8 12 1014.4 - - - - - - - - -
30/09:30am 29.9 ENE 7 10 1014.8 - - - - - - - - -
30/09:00am 29.0 ENE 5 7 1014.5 - - - - - - - - -
30/08:30am 27.2 ENE 5 7 1014.4 - - - - - - - - -
30/08:00am 25.0 E 4 5 1014.3 - - - - - - - - -
30/07:30am 23.1 E 4 5 1014.0 - - - - - - - - -
30/07:00am 21.1 ESE 5 6 1013.7 - - - - - - - - -
30/06:30am 20.5 ESE 5 6 1013.3 - - - - - - - - -
30/06:00am 21.2 ESE 5 6 1013.0 - - - - - - - - -
30/05:30am 20.4 ESE 5 6 1013.0 - - - - - - - - -
30/05:00am 20.7 E 5 6 1012.5 - - - - - - - - -
30/04:30am 21.9 E 5 6 1012.4 - - - - - - - - -
30/04:00am 22.5 E 6 7 1012.3 - - - - - - - - -
30/03:30am 22.1 E 6 8 1012.2 - - - - - - - - -
30/03:00am 20.6 E 5 7 1011.9 - - - - - - - - -
30/02:30am 20.7 E 5 6 1011.9 - - - - - - - - -
30/02:00am 20.1 SE 4 5 1011.7 - - - - - - - - -
30/01:30am 20.3 CALM 0 0 1011.9 - - - - - - - - -
30/01:00am 20.5 CALM 0 0 1012.0 - - - - - - - - -
30/12:30am 20.7 CALM 0 0 1012.3 - - - - - - - - -
30/12:00am 21.0 ENE 1 3 1012.4 - - - - - - - - -
 
Date/Time
CST
Temp

°C
Wind Pressure Rain
since 9am
mm
Weather Cloud Vis
km
Sea
Height
m
Swell
Dir
 
Speed
knots
Gust
knots
hPa Trend Height
m
Period
s
Dir
29/11:30pm 21.2 CALM 0 0 1012.9 - - - - - - - - -
29/11:00pm 21.5 CALM 0 0 1013.0 - - - - - - - - -
29/10:30pm 21.7 CALM 0 0 1012.9 - - - - - - - - -
29/10:00pm 22.0 CALM 0 0 1012.7 - - - - - - - - -
29/09:30pm 22.3 CALM 0 0 1012.4 - - - - - - - - -
29/09:00pm 22.9 CALM 0 0 1011.9 - - - - - - - - -
29/08:30pm 23.7 W 1 3 1011.6 - - - - - - - - -
29/08:00pm 25.0 WNW 4 6 1011.2 - - - - - - - - -
29/07:30pm 26.6 W 5 6 1011.0 - - - - - - - - -
29/07:00pm 27.0 W 5 6 1010.7 - - - - - - - - -
29/06:30pm 28.1 W 5 6 1010.4 - - - - - - - - -
29/06:00pm 28.8 W 5 7 1010.1 - - - - - - - - -
29/05:30pm 29.4 W 6 7 1009.9 - - - - - - - - -
29/05:00pm 29.9 W 6 8 1009.8 - - - - - - - - -
29/04:30pm 30.3 W 6 8 1009.9 - - - - - - - - -
29/04:00pm 30.8 W 6 9 1009.9 - - - - - - - - -
29/03:30pm 30.9 WSW 7 10 1010.1 - - - - - - - - -
29/03:00pm 30.6 W 6 9 1010.3 - - - - - - - - -
29/02:30pm 30.4 W 7 9 1010.7 - - - - - - - - -
29/02:00pm 31.2 NW 7 9 1011.1 - - - - - - - - -
29/01:30pm 31.8 NW 7 9 1011.5 - - - - - - - - -
29/01:00pm 31.1 NNW 7 10 1012.1 - - - - - - - - -
29/12:30pm 31.5 NNW 8 11 1012.5 - - - - - - - - -
29/12:00pm 30.9 NNW 7 9 1012.9 - - - - - - - - -
29/11:30am 31.6 N 6 8 1013.4 - - - - - - - - -
29/11:00am 30.7 N 6 9 1013.6 - - - - - - - - -
29/10:30am 30.1 N 5 7 1013.7 - - - - - - - - -
29/10:00am 30.1 N 6 8 1013.7 - - - - - - - - -
29/09:30am 28.8 N 4 5 1013.7 - - - - - - - - -
29/09:00am 28.5 NNE 5 7 1013.6 - - - - - - - - -
29/08:30am 27.4 ENE 4 6 1013.4 - - - - - - - - -
29/08:00am 25.1 E 4 6 1013.2 - - - - - - - - -
29/07:30am 22.7 ESE 4 5 1013.1 - - - - - - - - -
29/07:00am 20.4 ESE 4 5 1012.7 - - - - - - - - -
29/06:30am 19.8 E 4 6 1012.3 - - - - - - - - -
29/06:00am 20.5 ENE 4 6 1011.8 - - - - - - - - -
29/05:30am 21.4 E 4 5 1011.5 - - - - - - - - -
29/05:00am 22.6 E 5 6 1011.1 - - - - - - - - -
29/04:30am 22.8 E 6 7 1010.7 - - - - - - - - -
29/04:00am 22.8 E 6 7 1010.4 - - - - - - - - -
29/03:30am 22.2 E 5 6 1010.4 - - - - - - - - -
29/03:00am 22.6 E 5 6 1010.5 - - - - - - - - -
29/02:30am 23.8 ENE 3 5 1010.8 - - - - - - - - -
29/02:00am 26.1 N 6 8 1011.0 - - - - - - - - -
29/01:30am 25.9 N 6 8 1011.4 - - - - - - - - -
29/01:00am 25.6 N 6 8 1011.5 - - - - - - - - -
29/12:30am 23.6 N 5 7 1011.7 - - - - - - - - -
29/12:00am 23.1 N 2 4 1011.8 - - - - - - - - -
 
Date/Time
CST
Temp

°C
Wind Pressure Rain
since 9am
mm
Weather Cloud Vis
km
Sea
Height
m
Swell
Dir
 
Speed
knots
Gust
knots
hPa Trend Height
m
Period
s
Dir
28/11:30pm 24.1 NW 4 6 1012.0 - - - - - - - - -
28/11:00pm 26.5 WNW 6 7 1012.1 - - - - - - - - -
28/10:30pm 27.1 W 6 8 1011.9 - - - - - - - - -
28/10:00pm 27.2 W 7 8 1011.5 - - - - - - - - -
28/09:30pm 27.5 W 7 9 1011.1 - - - - - - - - -
28/09:00pm 27.3 W 7 8 1010.8 - - - - - - - - -
28/08:30pm 27.6 W 7 9 1010.5 - - - - - - - - -
28/08:00pm 27.6 W 6 8 1010.4 - - - - - - - - -
28/07:30pm 27.6 WSW 6 8 1010.2 - - - - - - - - -
28/07:00pm 27.8 W 6 8 1009.9 - - - - - - - - -
28/06:30pm 28.4 WNW 7 8 1009.8 - - - - - - - - -
28/06:00pm 29.3 W 7 9 1009.4 - - - - - - - - -
28/05:30pm 30.5 W 7 9 1009.5 - - - - - - - - -
28/05:00pm 30.9 WSW 6 9 1009.5 - - - - - - - - -
28/04:30pm 31.0 SW 8 12 1009.6 - - - - - - - - -
28/04:00pm 31.4 SW 8 13 1009.6 - - - - - - - - -
28/03:30pm 31.9 SW 7 11 1009.9 - - - - - - - - -
28/03:00pm 32.4 SSW 8 12 1010.1 - - - - - - - - -
28/02:30pm 32.1 SW 8 13 1010.6 - - - - - - - - -
28/02:00pm 31.9 WSW 8 11 1011.0 - - - - - - - - -
28/01:30pm 31.0 SW 9 13 1011.4 - - - - - - - - -
28/01:00pm 31.2 SW 8 12 1012.0 - - - - - - - - -
28/12:30pm 31.6 SW 9 13 1012.7 - - - - - - - - -
28/12:00pm 31.4 SW 8 13 1013.2 - - - - - - - - -
28/11:30am 30.3 SW 8 12 1013.8 - - - - - - - - -
28/11:00am 29.9 SW 8 14 1014.2 - - - - - - - - -
28/10:30am 30.1 SW 8 11 1014.5 - - - - - - - - -
28/10:00am 29.3 SSW 8 12 1014.8 - - - - - - - - -
28/09:30am 29.7 SSW 8 11 1014.9 - - - - - - - - -
28/09:00am 28.0 SSW 6 10 1014.8 - - - - - - - - -
28/08:30am 26.9 S 5 8 1014.8 - - - - - - - - -
28/08:00am 25.8 SSE 3 4 1014.7 - - - - - - - - -
28/07:30am 23.0 SSE 4 4 1014.3 - - - - - - - - -
28/07:00am 20.8 SE 4 4 1014.0 - - - - - - - - -
28/06:30am 20.5 SSE 3 4 1013.6 - - - - - - - - -
28/06:00am 20.8 SSE 3 4 1013.1 - - - - - - - - -

Other Formats:

Comma delimited format used in spreadsheet applications
http://www.bom.gov.au/fwo/IDD60701/IDD60701.94122.axf

JavaScript Object Notation format (JSON) in row-major order
http://www.bom.gov.au/fwo/IDD60701/IDD60701.94122.json